sensor_id;sensor_type;location;lat;lon;timestamp;P1;durP1;ratioP1;P2;durP2;ratioP2
75012;SDS011;63567;49.956;20.130;2022-10-31T00:01:28;25.90;;;15.80;;
75012;SDS011;63567;49.956;20.130;2022-10-31T00:04:01;30.80;;;16.48;;
75012;SDS011;63567;49.956;20.130;2022-10-31T00:06:27;26.73;;;15.57;;
75012;SDS011;63567;49.956;20.130;2022-10-31T00:08:54;29.85;;;16.67;;
75012;SDS011;63567;49.956;20.130;2022-10-31T00:11:20;32.33;;;16.85;;
75012;SDS011;63567;49.956;20.130;2022-10-31T00:13:46;30.38;;;16.35;;
75012;SDS011;63567;49.956;20.130;2022-10-31T00:16:13;29.45;;;17.60;;
75012;SDS011;63567;49.956;20.130;2022-10-31T00:18:41;30.88;;;16.77;;
75012;SDS011;63567;49.956;20.130;2022-10-31T00:21:07;31.90;;;17.77;;
75012;SDS011;63567;49.956;20.130;2022-10-31T00:23:32;29.33;;;16.33;;
75012;SDS011;63567;49.956;20.130;2022-10-31T00:26:01;30.13;;;16.67;;
75012;SDS011;63567;49.956;20.130;2022-10-31T00:28:27;31.10;;;17.08;;
75012;SDS011;63567;49.956;20.130;2022-10-31T00:30:57;29.15;;;15.90;;
75012;SDS011;63567;49.956;20.130;2022-10-31T00:33:23;26.63;;;14.63;;
75012;SDS011;63567;49.956;20.130;2022-10-31T00:35:49;25.00;;;14.30;;
75012;SDS011;63567;49.956;20.130;2022-10-31T00:38:15;24.17;;;14.25;;
75012;SDS011;63567;49.956;20.130;2022-10-31T00:40:41;21.20;;;13.18;;
75012;SDS011;63567;49.956;20.130;2022-10-31T00:43:06;17.33;;;10.97;;
75012;SDS011;63567;49.956;20.130;2022-10-31T00:45:31;21.13;;;12.00;;
75012;SDS011;63567;49.956;20.130;2022-10-31T00:47:56;23.87;;;12.97;;
75012;SDS011;63567;49.956;20.130;2022-10-31T00:50:22;23.40;;;13.03;;
75012;SDS011;63567;49.956;20.130;2022-10-31T00:52:47;21.00;;;13.03;;
75012;SDS011;63567;49.956;20.130;2022-10-31T00:55:12;19.20;;;10.97;;
75012;SDS011;63567;49.956;20.130;2022-10-31T00:57:37;20.33;;;12.03;;
75012;SDS011;63567;49.956;20.130;2022-10-31T01:03:26;17.08;;;10.38;;
75012;SDS011;63567;49.956;20.130;2022-10-31T01:06:00;19.48;;;11.27;;
75012;SDS011;63567;49.956;20.130;2022-10-31T01:08:31;18.50;;;11.18;;
75012;SDS011;63567;49.956;20.130;2022-10-31T01:11:04;16.45;;;10.18;;
75012;SDS011;63567;49.956;20.130;2022-10-31T01:13:36;22.13;;;11.70;;
75012;SDS011;63567;49.956;20.130;2022-10-31T01:16:02;18.10;;;10.83;;
75012;SDS011;63567;49.956;20.130;2022-10-31T01:18:28;22.17;;;12.13;;
75012;SDS011;63567;49.956;20.130;2022-10-31T01:21:27;19.25;;;11.50;;
75012;SDS011;63567;49.956;20.130;2022-10-31T01:23:47;19.33;;;11.63;;
75012;SDS011;63567;49.956;20.130;2022-10-31T01:26:13;20.35;;;10.27;;
75012;SDS011;63567;49.956;20.130;2022-10-31T01:28:45;18.13;;;10.52;;
75012;SDS011;63567;49.956;20.130;2022-10-31T01:31:12;16.23;;;9.48;;
75012;SDS011;63567;49.956;20.130;2022-10-31T01:33:38;16.93;;;10.17;;
75012;SDS011;63567;49.956;20.130;2022-10-31T01:38:48;19.52;;;11.02;;
75012;SDS011;63567;49.956;20.130;2022-10-31T01:41:14;19.15;;;11.00;;
75012;SDS011;63567;49.956;20.130;2022-10-31T01:44:00;20.90;;;11.50;;
75012;SDS011;63567;49.956;20.130;2022-10-31T01:46:40;22.98;;;12.02;;
75012;SDS011;63567;49.956;20.130;2022-10-31T01:49:09;22.50;;;13.88;;
75012;SDS011;63567;49.956;20.130;2022-10-31T01:51:39;25.25;;;13.77;;
75012;SDS011;63567;49.956;20.130;2022-10-31T01:54:11;25.70;;;13.95;;
75012;SDS011;63567;49.956;20.130;2022-10-31T01:56:40;23.50;;;12.57;;
75012;SDS011;63567;49.956;20.130;2022-10-31T01:59:11;20.85;;;11.48;;
75012;SDS011;63567;49.956;20.130;2022-10-31T02:01:40;20.38;;;11.38;;
75012;SDS011;63567;49.956;20.130;2022-10-31T02:04:06;21.40;;;12.03;;
75012;SDS011;63567;49.956;20.130;2022-10-31T02:06:37;20.52;;;10.90;;
75012;SDS011;63567;49.956;20.130;2022-10-31T02:09:06;25.33;;;11.45;;
75012;SDS011;63567;49.956;20.130;2022-10-31T02:11:31;19.77;;;10.80;;
75012;SDS011;63567;49.956;20.130;2022-10-31T02:13:59;18.48;;;10.85;;
75012;SDS011;63567;49.956;20.130;2022-10-31T02:16:26;17.50;;;9.95;;
75012;SDS011;63567;49.956;20.130;2022-10-31T02:18:52;15.77;;;10.30;;
75012;SDS011;63567;49.956;20.130;2022-10-31T02:27:11;15.45;;;7.95;;
75012;SDS011;63567;49.956;20.130;2022-10-31T02:32:25;14.43;;;8.20;;
75012;SDS011;63567;49.956;20.130;2022-10-31T02:45:47;16.10;;;7.93;;
75012;SDS011;63567;49.956;20.130;2022-10-31T02:48:19;14.02;;;7.32;;
75012;SDS011;63567;49.956;20.130;2022-10-31T02:50:50;13.98;;;7.63;;
75012;SDS011;63567;49.956;20.130;2022-10-31T02:53:20;17.65;;;8.40;;
75012;SDS011;63567;49.956;20.130;2022-10-31T02:55:50;15.37;;;8.83;;
75012;SDS011;63567;49.956;20.130;2022-10-31T03:11:43;19.23;;;10.50;;
75012;SDS011;63567;49.956;20.130;2022-10-31T03:14:20;17.33;;;10.05;;
75012;SDS011;63567;49.956;20.130;2022-10-31T03:16:51;20.17;;;10.13;;
75012;SDS011;63567;49.956;20.130;2022-10-31T03:19:25;17.42;;;10.30;;
75012;SDS011;63567;49.956;20.130;2022-10-31T03:21:57;17.42;;;10.52;;
75012;SDS011;63567;49.956;20.130;2022-10-31T03:24:29;17.63;;;10.25;;
75012;SDS011;63567;49.956;20.130;2022-10-31T03:26:57;18.73;;;10.15;;
75012;SDS011;63567;49.956;20.130;2022-10-31T03:29:26;17.95;;;10.57;;
75012;SDS011;63567;49.956;20.130;2022-10-31T03:32:06;19.63;;;11.40;;
75012;SDS011;63567;49.956;20.130;2022-10-31T03:34:36;19.00;;;10.90;;
75012;SDS011;63567;49.956;20.130;2022-10-31T03:37:04;21.40;;;11.50;;
75012;SDS011;63567;49.956;20.130;2022-10-31T03:39:32;20.25;;;11.60;;
75012;SDS011;63567;49.956;20.130;2022-10-31T03:42:04;20.60;;;12.13;;
75012;SDS011;63567;49.956;20.130;2022-10-31T03:44:34;19.63;;;10.82;;
75012;SDS011;63567;49.956;20.130;2022-10-31T03:47:00;23.30;;;11.75;;
75012;SDS011;63567;49.956;20.130;2022-10-31T03:49:28;17.38;;;10.00;;
75012;SDS011;63567;49.956;20.130;2022-10-31T03:51:56;18.42;;;10.02;;
75012;SDS011;63567;49.956;20.130;2022-10-31T03:57:50;18.40;;;9.68;;
75012;SDS011;63567;49.956;20.130;2022-10-31T04:00:04;18.30;;;10.82;;
75012;SDS011;63567;49.956;20.130;2022-10-31T04:02:33;20.13;;;11.40;;
75012;SDS011;63567;49.956;20.130;2022-10-31T04:05:03;19.85;;;10.50;;
75012;SDS011;63567;49.956;20.130;2022-10-31T04:07:31;16.67;;;10.15;;
75012;SDS011;63567;49.956;20.130;2022-10-31T04:10:02;16.23;;;10.02;;
75012;SDS011;63567;49.956;20.130;2022-10-31T04:12:32;18.58;;;10.50;;
75012;SDS011;63567;49.956;20.130;2022-10-31T04:15:00;19.00;;;10.23;;
75012;SDS011;63567;49.956;20.130;2022-10-31T04:17:29;20.90;;;10.75;;
75012;SDS011;63567;49.956;20.130;2022-10-31T04:19:58;20.35;;;10.90;;
75012;SDS011;63567;49.956;20.130;2022-10-31T04:22:25;23.45;;;11.02;;
75012;SDS011;63567;49.956;20.130;2022-10-31T04:24:50;20.77;;;10.47;;
75012;SDS011;63567;49.956;20.130;2022-10-31T04:27:15;20.77;;;10.40;;
75012;SDS011;63567;49.956;20.130;2022-10-31T04:29:41;21.07;;;10.80;;
75012;SDS011;63567;49.956;20.130;2022-10-31T04:32:06;18.80;;;10.33;;
75012;SDS011;63567;49.956;20.130;2022-10-31T04:34:31;18.77;;;9.70;;
75012;SDS011;63567;49.956;20.130;2022-10-31T04:36:56;18.07;;;9.87;;
75012;SDS011;63567;49.956;20.130;2022-10-31T04:39:22;17.20;;;9.40;;
75012;SDS011;63567;49.956;20.130;2022-10-31T04:41:47;14.40;;;9.10;;
75012;SDS011;63567;49.956;20.130;2022-10-31T04:44:12;17.17;;;10.00;;
75012;SDS011;63567;49.956;20.130;2022-10-31T04:46:37;17.07;;;9.03;;
75012;SDS011;63567;49.956;20.130;2022-10-31T04:49:03;18.10;;;8.83;;
75012;SDS011;63567;49.956;20.130;2022-10-31T04:51:28;14.97;;;8.20;;
75012;SDS011;63567;49.956;20.130;2022-10-31T04:53:53;11.67;;;7.37;;
75012;SDS011;63567;49.956;20.130;2022-10-31T04:56:18;12.73;;;7.13;;
75012;SDS011;63567;49.956;20.130;2022-10-31T04:58:44;14.53;;;7.17;;
75012;SDS011;63567;49.956;20.130;2022-10-31T05:01:09;13.17;;;7.57;;
75012;SDS011;63567;49.956;20.130;2022-10-31T05:03:34;14.05;;;7.47;;
75012;SDS011;63567;49.956;20.130;2022-10-31T05:06:00;17.87;;;8.13;;
75012;SDS011;63567;49.956;20.130;2022-10-31T05:08:25;14.67;;;7.90;;
75012;SDS011;63567;49.956;20.130;2022-10-31T05:10:50;17.23;;;8.17;;
75012;SDS011;63567;49.956;20.130;2022-10-31T05:13:16;14.25;;;6.90;;
75012;SDS011;63567;49.956;20.130;2022-10-31T05:15:42;11.17;;;6.17;;
75012;SDS011;63567;49.956;20.130;2022-10-31T05:18:07;13.07;;;6.80;;
75012;SDS011;63567;49.956;20.130;2022-10-31T05:20:32;12.17;;;6.60;;
75012;SDS011;63567;49.956;20.130;2022-10-31T05:22:58;11.27;;;6.20;;
75012;SDS011;63567;49.956;20.130;2022-10-31T05:25:25;12.98;;;7.57;;
75012;SDS011;63567;49.956;20.130;2022-10-31T05:27:53;11.95;;;5.75;;
75012;SDS011;63567;49.956;20.130;2022-10-31T05:30:20;10.95;;;5.82;;
75012;SDS011;63567;49.956;20.130;2022-10-31T05:32:48;10.32;;;5.47;;
75012;SDS011;63567;49.956;20.130;2022-10-31T05:35:16;8.80;;;5.10;;
75012;SDS011;63567;49.956;20.130;2022-10-31T05:37:42;11.70;;;4.97;;
75012;SDS011;63567;49.956;20.130;2022-10-31T05:40:09;8.53;;;4.77;;
75012;SDS011;63567;49.956;20.130;2022-10-31T05:42:37;12.43;;;5.20;;
75012;SDS011;63567;49.956;20.130;2022-10-31T05:45:03;9.00;;;5.38;;
75012;SDS011;63567;49.956;20.130;2022-10-31T05:47:29;9.68;;;4.70;;
75012;SDS011;63567;49.956;20.130;2022-10-31T05:49:54;9.23;;;4.70;;
75012;SDS011;63567;49.956;20.130;2022-10-31T05:52:19;11.60;;;4.50;;
75012;SDS011;63567;49.956;20.130;2022-10-31T05:54:45;9.83;;;4.53;;
75012;SDS011;63567;49.956;20.130;2022-10-31T05:57:10;7.43;;;4.07;;
75012;SDS011;63567;49.956;20.130;2022-10-31T05:59:35;7.90;;;3.93;;
75012;SDS011;63567;49.956;20.130;2022-10-31T06:02:01;8.57;;;3.73;;
75012;SDS011;63567;49.956;20.130;2022-10-31T06:04:26;10.43;;;4.15;;
75012;SDS011;63567;49.956;20.130;2022-10-31T06:06:51;7.77;;;4.20;;
75012;SDS011;63567;49.956;20.130;2022-10-31T06:09:16;10.70;;;4.30;;
75012;SDS011;63567;49.956;20.130;2022-10-31T06:11:42;9.90;;;4.53;;
75012;SDS011;63567;49.956;20.130;2022-10-31T06:14:07;9.73;;;4.77;;
75012;SDS011;63567;49.956;20.130;2022-10-31T06:16:32;8.27;;;4.90;;
75012;SDS011;63567;49.956;20.130;2022-10-31T06:18:58;9.35;;;5.50;;
75012;SDS011;63567;49.956;20.130;2022-10-31T06:21:23;10.90;;;5.30;;
75012;SDS011;63567;49.956;20.130;2022-10-31T06:23:49;12.73;;;6.72;;
75012;SDS011;63567;49.956;20.130;2022-10-31T06:26:14;13.60;;;6.40;;
75012;SDS011;63567;49.956;20.130;2022-10-31T06:28:39;12.73;;;6.33;;
75012;SDS011;63567;49.956;20.130;2022-10-31T06:31:05;9.47;;;5.30;;
75012;SDS011;63567;49.956;20.130;2022-10-31T06:33:31;12.00;;;6.20;;
75012;SDS011;63567;49.956;20.130;2022-10-31T06:35:56;8.63;;;5.03;;
75012;SDS011;63567;49.956;20.130;2022-10-31T06:38:21;10.13;;;4.70;;
75012;SDS011;63567;49.956;20.130;2022-10-31T06:40:46;7.25;;;3.83;;
75012;SDS011;63567;49.956;20.130;2022-10-31T06:43:12;10.93;;;5.03;;
75012;SDS011;63567;49.956;20.130;2022-10-31T06:45:39;9.73;;;4.63;;
75012;SDS011;63567;49.956;20.130;2022-10-31T06:48:04;9.70;;;4.30;;
75012;SDS011;63567;49.956;20.130;2022-10-31T06:50:30;8.43;;;4.75;;
75012;SDS011;63567;49.956;20.130;2022-10-31T06:52:56;9.70;;;4.20;;
75012;SDS011;63567;49.956;20.130;2022-10-31T06:55:23;7.65;;;3.78;;
75012;SDS011;63567;49.956;20.130;2022-10-31T06:57:53;9.15;;;4.47;;
75012;SDS011;63567;49.956;20.130;2022-10-31T07:00:19;10.68;;;4.47;;
75012;SDS011;63567;49.956;20.130;2022-10-31T07:02:52;10.30;;;4.13;;
75012;SDS011;63567;49.956;20.130;2022-10-31T07:05:18;8.40;;;4.65;;
75012;SDS011;63567;49.956;20.130;2022-10-31T07:07:44;8.97;;;3.80;;
75012;SDS011;63567;49.956;20.130;2022-10-31T07:10:09;8.77;;;4.87;;
75012;SDS011;63567;49.956;20.130;2022-10-31T07:12:34;8.67;;;3.83;;
75012;SDS011;63567;49.956;20.130;2022-10-31T07:14:59;8.77;;;4.10;;
75012;SDS011;63567;49.956;20.130;2022-10-31T07:17:25;8.47;;;3.97;;
75012;SDS011;63567;49.956;20.130;2022-10-31T07:19:50;8.50;;;3.80;;
75012;SDS011;63567;49.956;20.130;2022-10-31T07:22:15;8.17;;;4.30;;
75012;SDS011;63567;49.956;20.130;2022-10-31T07:24:40;8.20;;;4.27;;
75012;SDS011;63567;49.956;20.130;2022-10-31T07:27:06;9.07;;;4.10;;
75012;SDS011;63567;49.956;20.130;2022-10-31T07:29:31;10.97;;;4.70;;
75012;SDS011;63567;49.956;20.130;2022-10-31T07:31:56;9.73;;;4.80;;
75012;SDS011;63567;49.956;20.130;2022-10-31T07:34:22;7.93;;;4.27;;
75012;SDS011;63567;49.956;20.130;2022-10-31T07:36:47;8.23;;;4.27;;
75012;SDS011;63567;49.956;20.130;2022-10-31T07:39:12;8.50;;;4.63;;
75012;SDS011;63567;49.956;20.130;2022-10-31T07:41:37;7.20;;;4.43;;
75012;SDS011;63567;49.956;20.130;2022-10-31T07:44:03;7.77;;;4.87;;
75012;SDS011;63567;49.956;20.130;2022-10-31T07:46:28;8.02;;;4.63;;
75012;SDS011;63567;49.956;20.130;2022-10-31T07:48:53;8.20;;;5.10;;
75012;SDS011;63567;49.956;20.130;2022-10-31T07:51:19;8.02;;;4.72;;
75012;SDS011;63567;49.956;20.130;2022-10-31T07:53:44;10.10;;;4.43;;
75012;SDS011;63567;49.956;20.130;2022-10-31T07:56:09;10.13;;;4.93;;
75012;SDS011;63567;49.956;20.130;2022-10-31T07:58:35;9.60;;;4.30;;
75012;SDS011;63567;49.956;20.130;2022-10-31T08:01:00;9.10;;;4.53;;
75012;SDS011;63567;49.956;20.130;2022-10-31T08:03:25;7.97;;;4.17;;
75012;SDS011;63567;49.956;20.130;2022-10-31T08:05:50;7.97;;;4.73;;
75012;SDS011;63567;49.956;20.130;2022-10-31T08:08:16;9.02;;;4.32;;
75012;SDS011;63567;49.956;20.130;2022-10-31T08:10:41;8.40;;;3.83;;
75012;SDS011;63567;49.956;20.130;2022-10-31T08:13:11;8.32;;;4.43;;
75012;SDS011;63567;49.956;20.130;2022-10-31T08:15:37;10.23;;;4.85;;
75012;SDS011;63567;49.956;20.130;2022-10-31T08:18:06;9.70;;;5.72;;
75012;SDS011;63567;49.956;20.130;2022-10-31T08:20:35;9.73;;;5.18;;
75012;SDS011;63567;49.956;20.130;2022-10-31T08:23:01;9.93;;;4.33;;
75012;SDS011;63567;49.956;20.130;2022-10-31T08:25:29;9.50;;;5.13;;
75012;SDS011;63567;49.956;20.130;2022-10-31T08:27:55;7.35;;;3.80;;
75012;SDS011;63567;49.956;20.130;2022-10-31T08:30:22;10.20;;;4.82;;
75012;SDS011;63567;49.956;20.130;2022-10-31T08:33:00;7.43;;;4.25;;
75012;SDS011;63567;49.956;20.130;2022-10-31T08:35:30;9.00;;;3.75;;
75012;SDS011;63567;49.956;20.130;2022-10-31T08:37:57;7.38;;;4.00;;
75012;SDS011;63567;49.956;20.130;2022-10-31T08:40:23;8.30;;;4.15;;
75012;SDS011;63567;49.956;20.130;2022-10-31T08:42:56;8.23;;;3.70;;
75012;SDS011;63567;49.956;20.130;2022-10-31T08:45:23;8.75;;;3.92;;
75012;SDS011;63567;49.956;20.130;2022-10-31T08:47:49;7.80;;;3.65;;
75012;SDS011;63567;49.956;20.130;2022-10-31T08:50:14;6.53;;;3.23;;
75012;SDS011;63567;49.956;20.130;2022-10-31T08:52:39;6.85;;;3.47;;
75012;SDS011;63567;49.956;20.130;2022-10-31T08:55:05;8.03;;;3.43;;
75012;SDS011;63567;49.956;20.130;2022-10-31T08:57:30;8.90;;;3.67;;
75012;SDS011;63567;49.956;20.130;2022-10-31T08:59:56;8.97;;;3.87;;
75012;SDS011;63567;49.956;20.130;2022-10-31T09:02:21;5.27;;;3.43;;
75012;SDS011;63567;49.956;20.130;2022-10-31T09:04:46;7.47;;;3.50;;
75012;SDS011;63567;49.956;20.130;2022-10-31T09:07:11;8.60;;;3.60;;
75012;SDS011;63567;49.956;20.130;2022-10-31T09:09:37;9.90;;;3.80;;
75012;SDS011;63567;49.956;20.130;2022-10-31T09:12:02;6.53;;;3.47;;
75012;SDS011;63567;49.956;20.130;2022-10-31T09:14:27;7.90;;;4.28;;
75012;SDS011;63567;49.956;20.130;2022-10-31T09:16:53;8.03;;;3.80;;
75012;SDS011;63567;49.956;20.130;2022-10-31T09:19:18;6.68;;;3.72;;
75012;SDS011;63567;49.956;20.130;2022-10-31T09:21:43;8.37;;;4.70;;
75012;SDS011;63567;49.956;20.130;2022-10-31T09:24:08;8.50;;;4.37;;
75012;SDS011;63567;49.956;20.130;2022-10-31T09:26:34;9.40;;;3.88;;
75012;SDS011;63567;49.956;20.130;2022-10-31T09:28:59;5.30;;;3.60;;
75012;SDS011;63567;49.956;20.130;2022-10-31T09:31:26;6.65;;;3.83;;
75012;SDS011;63567;49.956;20.130;2022-10-31T10:03:12;6.47;;;4.82;;
75012;SDS011;63567;49.956;20.130;2022-10-31T10:19:05;8.40;;;6.07;;
75012;SDS011;63567;49.956;20.130;2022-10-31T10:22:08;6.97;;;6.28;;
75012;SDS011;63567;49.956;20.130;2022-10-31T10:29:57;9.40;;;7.93;;
75012;SDS011;63567;49.956;20.130;2022-10-31T10:32:29;8.02;;;6.97;;
75012;SDS011;63567;49.956;20.130;2022-10-31T10:37:46;9.50;;;8.55;;
75012;SDS011;63567;49.956;20.130;2022-10-31T10:40:18;11.73;;;10.65;;
75012;SDS011;63567;49.956;20.130;2022-10-31T10:43:29;11.82;;;10.82;;
75012;SDS011;63567;49.956;20.130;2022-10-31T10:51:59;14.30;;;13.13;;
75012;SDS011;63567;49.956;20.130;2022-10-31T10:54:45;13.27;;;12.20;;
75012;SDS011;63567;49.956;20.130;2022-10-31T10:59:43;13.73;;;12.63;;
75012;SDS011;63567;49.956;20.130;2022-10-31T11:02:15;12.13;;;11.23;;
75012;SDS011;63567;49.956;20.130;2022-10-31T11:04:51;13.93;;;12.68;;
75012;SDS011;63567;49.956;20.130;2022-10-31T11:07:18;14.40;;;13.20;;
75012;SDS011;63567;49.956;20.130;2022-10-31T11:09:44;12.90;;;11.82;;
75012;SDS011;63567;49.956;20.130;2022-10-31T11:12:28;9.73;;;8.73;;
75012;SDS011;63567;49.956;20.130;2022-10-31T11:14:57;12.02;;;11.00;;
75012;SDS011;63567;49.956;20.130;2022-10-31T11:17:32;13.38;;;12.15;;
75012;SDS011;63567;49.956;20.130;2022-10-31T11:20:20;12.52;;;11.25;;
75012;SDS011;63567;49.956;20.130;2022-10-31T11:22:48;12.93;;;11.80;;
75012;SDS011;63567;49.956;20.130;2022-10-31T11:25:23;13.48;;;12.35;;
75012;SDS011;63567;49.956;20.130;2022-10-31T11:28:00;13.07;;;11.80;;
75012;SDS011;63567;49.956;20.130;2022-10-31T11:30:27;14.57;;;13.50;;
75012;SDS011;63567;49.956;20.130;2022-10-31T11:32:53;12.68;;;11.48;;
75012;SDS011;63567;49.956;20.130;2022-10-31T11:35:20;14.05;;;12.95;;
75012;SDS011;63567;49.956;20.130;2022-10-31T11:37:48;12.50;;;11.40;;
75012;SDS011;63567;49.956;20.130;2022-10-31T11:40:16;15.45;;;14.25;;
75012;SDS011;63567;49.956;20.130;2022-10-31T11:42:44;13.85;;;12.85;;
75012;SDS011;63567;49.956;20.130;2022-10-31T11:45:17;12.52;;;11.45;;
75012;SDS011;63567;49.956;20.130;2022-10-31T11:47:53;15.38;;;14.30;;
75012;SDS011;63567;49.956;20.130;2022-10-31T11:52:53;15.48;;;14.43;;
75012;SDS011;63567;49.956;20.130;2022-10-31T11:55:35;16.45;;;15.05;;
75012;SDS011;63567;49.956;20.130;2022-10-31T11:58:03;16.33;;;15.10;;
75012;SDS011;63567;49.956;20.130;2022-10-31T12:00:30;16.50;;;15.30;;
75012;SDS011;63567;49.956;20.130;2022-10-31T12:05:51;18.10;;;16.90;;
75012;SDS011;63567;49.956;20.130;2022-10-31T12:08:26;18.45;;;16.90;;
75012;SDS011;63567;49.956;20.130;2022-10-31T12:19:05;15.80;;;14.50;;
75012;SDS011;63567;49.956;20.130;2022-10-31T12:28:02;16.25;;;15.02;;
75012;SDS011;63567;49.956;20.130;2022-10-31T12:44:00;13.57;;;12.48;;
75012;SDS011;63567;49.956;20.130;2022-10-31T12:46:35;11.77;;;10.65;;
75012;SDS011;63567;49.956;20.130;2022-10-31T12:57:40;12.75;;;11.68;;
75012;SDS011;63567;49.956;20.130;2022-10-31T13:00:13;13.13;;;12.05;;
75012;SDS011;63567;49.956;20.130;2022-10-31T13:05:36;14.68;;;13.48;;
75012;SDS011;63567;49.956;20.130;2022-10-31T13:08:24;14.25;;;12.90;;
75012;SDS011;63567;49.956;20.130;2022-10-31T13:13:27;16.02;;;14.85;;
75012;SDS011;63567;49.956;20.130;2022-10-31T13:16:02;10.68;;;9.70;;
75012;SDS011;63567;49.956;20.130;2022-10-31T13:18:35;11.52;;;10.38;;
75012;SDS011;63567;49.956;20.130;2022-10-31T13:21:10;12.73;;;11.57;;
75012;SDS011;63567;49.956;20.130;2022-10-31T13:23:41;13.85;;;11.30;;
75012;SDS011;63567;49.956;20.130;2022-10-31T13:26:10;14.18;;;12.77;;
75012;SDS011;63567;49.956;20.130;2022-10-31T13:29:15;12.60;;;11.30;;
75012;SDS011;63567;49.956;20.130;2022-10-31T13:31:40;14.13;;;12.85;;
75012;SDS011;63567;49.956;20.130;2022-10-31T13:34:09;11.50;;;10.13;;
75012;SDS011;63567;49.956;20.130;2022-10-31T13:36:49;13.30;;;12.00;;
75012;SDS011;63567;49.956;20.130;2022-10-31T13:44:36;13.32;;;12.00;;
75012;SDS011;63567;49.956;20.130;2022-10-31T13:50:22;14.77;;;12.07;;
75012;SDS011;63567;49.956;20.130;2022-10-31T13:55:43;11.55;;;10.40;;
75012;SDS011;63567;49.956;20.130;2022-10-31T13:58:20;10.35;;;9.35;;
75012;SDS011;63567;49.956;20.130;2022-10-31T14:01:02;10.68;;;9.60;;
75012;SDS011;63567;49.956;20.130;2022-10-31T14:03:29;12.38;;;11.20;;
75012;SDS011;63567;49.956;20.130;2022-10-31T14:05:56;12.55;;;11.25;;
75012;SDS011;63567;49.956;20.130;2022-10-31T14:08:22;11.68;;;10.48;;
75012;SDS011;63567;49.956;20.130;2022-10-31T14:10:49;9.88;;;8.88;;
75012;SDS011;63567;49.956;20.130;2022-10-31T14:16:18;8.75;;;7.85;;
75012;SDS011;63567;49.956;20.130;2022-10-31T14:18:48;9.27;;;8.27;;
75012;SDS011;63567;49.956;20.130;2022-10-31T14:23:50;11.93;;;9.52;;
75012;SDS011;63567;49.956;20.130;2022-10-31T14:26:18;10.13;;;8.13;;
75012;SDS011;63567;49.956;20.130;2022-10-31T14:31:55;11.95;;;8.80;;
75012;SDS011;63567;49.956;20.130;2022-10-31T14:34:34;11.32;;;8.00;;
75012;SDS011;63567;49.956;20.130;2022-10-31T14:51:40;8.60;;;6.13;;
75012;SDS011;63567;49.956;20.130;2022-10-31T14:54:11;11.50;;;7.00;;
75012;SDS011;63567;49.956;20.130;2022-10-31T14:56:42;13.30;;;7.05;;
75012;SDS011;63567;49.956;20.130;2022-10-31T14:59:16;9.18;;;6.00;;
75012;SDS011;63567;49.956;20.130;2022-10-31T15:02:29;8.18;;;5.18;;
75012;SDS011;63567;49.956;20.130;2022-10-31T15:04:41;11.20;;;6.35;;
75012;SDS011;63567;49.956;20.130;2022-10-31T15:07:15;10.02;;;5.60;;
75012;SDS011;63567;49.956;20.130;2022-10-31T15:09:44;12.05;;;6.38;;
75012;SDS011;63567;49.956;20.130;2022-10-31T15:12:29;12.30;;;7.70;;
75012;SDS011;63567;49.956;20.130;2022-10-31T15:14:57;14.07;;;7.85;;
75012;SDS011;63567;49.956;20.130;2022-10-31T15:17:35;15.75;;;9.65;;
75012;SDS011;63567;49.956;20.130;2022-10-31T15:20:10;20.35;;;11.90;;
75012;SDS011;63567;49.956;20.130;2022-10-31T15:22:37;19.08;;;11.38;;
75012;SDS011;63567;49.956;20.130;2022-10-31T15:25:02;15.07;;;8.10;;
75012;SDS011;63567;49.956;20.130;2022-10-31T15:27:28;11.88;;;6.75;;
75012;SDS011;63567;49.956;20.130;2022-10-31T15:29:55;13.60;;;6.82;;
75012;SDS011;63567;49.956;20.130;2022-10-31T15:32:27;10.80;;;5.47;;
75012;SDS011;63567;49.956;20.130;2022-10-31T15:34:54;10.98;;;5.78;;
75012;SDS011;63567;49.956;20.130;2022-10-31T15:37:21;10.48;;;5.72;;
75012;SDS011;63567;49.956;20.130;2022-10-31T15:39:54;11.13;;;5.43;;
75012;SDS011;63567;49.956;20.130;2022-10-31T15:42:20;9.73;;;5.10;;
75012;SDS011;63567;49.956;20.130;2022-10-31T15:45:12;10.57;;;5.45;;
75012;SDS011;63567;49.956;20.130;2022-10-31T15:47:56;9.50;;;5.22;;
75012;SDS011;63567;49.956;20.130;2022-10-31T15:50:28;9.32;;;5.88;;
75012;SDS011;63567;49.956;20.130;2022-10-31T15:52:57;10.35;;;5.57;;
75012;SDS011;63567;49.956;20.130;2022-10-31T15:55:25;9.05;;;5.72;;
75012;SDS011;63567;49.956;20.130;2022-10-31T15:57:56;9.55;;;5.78;;
75012;SDS011;63567;49.956;20.130;2022-10-31T16:00:24;11.27;;;5.95;;
75012;SDS011;63567;49.956;20.130;2022-10-31T16:03:02;10.05;;;5.68;;
75012;SDS011;63567;49.956;20.130;2022-10-31T16:08:30;10.93;;;6.35;;
75012;SDS011;63567;49.956;20.130;2022-10-31T16:13:36;9.15;;;4.82;;
75012;SDS011;63567;49.956;20.130;2022-10-31T16:16:04;8.65;;;4.85;;
75012;SDS011;63567;49.956;20.130;2022-10-31T16:18:37;8.43;;;5.35;;
75012;SDS011;63567;49.956;20.130;2022-10-31T16:21:05;10.68;;;5.28;;
75012;SDS011;63567;49.956;20.130;2022-10-31T16:23:32;9.82;;;5.00;;
75012;SDS011;63567;49.956;20.130;2022-10-31T16:25:57;10.85;;;5.72;;
75012;SDS011;63567;49.956;20.130;2022-10-31T16:28:23;8.83;;;5.20;;
75012;SDS011;63567;49.956;20.130;2022-10-31T16:30:51;8.40;;;5.13;;
75012;SDS011;63567;49.956;20.130;2022-10-31T16:35:53;12.00;;;5.97;;
75012;SDS011;63567;49.956;20.130;2022-10-31T16:38:20;11.40;;;6.82;;
75012;SDS011;63567;49.956;20.130;2022-10-31T16:40:45;15.10;;;9.13;;
75012;SDS011;63567;49.956;20.130;2022-10-31T16:43:11;20.50;;;10.77;;
75012;SDS011;63567;49.956;20.130;2022-10-31T16:45:43;21.55;;;12.05;;
75012;SDS011;63567;49.956;20.130;2022-10-31T16:48:11;24.83;;;14.98;;
75012;SDS011;63567;49.956;20.130;2022-10-31T16:50:39;26.77;;;15.00;;
75012;SDS011;63567;49.956;20.130;2022-10-31T16:53:05;21.63;;;13.05;;
75012;SDS011;63567;49.956;20.130;2022-10-31T16:55:31;21.88;;;12.60;;
75012;SDS011;63567;49.956;20.130;2022-10-31T16:57:59;23.85;;;13.27;;
75012;SDS011;63567;49.956;20.130;2022-10-31T17:00:26;24.25;;;14.00;;
75012;SDS011;63567;49.956;20.130;2022-10-31T17:02:53;29.15;;;17.48;;
75012;SDS011;63567;49.956;20.130;2022-10-31T17:05:21;31.27;;;16.77;;
75012;SDS011;63567;49.956;20.130;2022-10-31T17:07:54;29.70;;;16.13;;
75012;SDS011;63567;49.956;20.130;2022-10-31T17:10:23;32.25;;;17.15;;
75012;SDS011;63567;49.956;20.130;2022-10-31T17:12:49;23.80;;;14.25;;
75012;SDS011;63567;49.956;20.130;2022-10-31T17:15:16;24.45;;;13.55;;
75012;SDS011;63567;49.956;20.130;2022-10-31T17:17:47;22.75;;;12.63;;
75012;SDS011;63567;49.956;20.130;2022-10-31T17:20:33;24.20;;;13.43;;
75012;SDS011;63567;49.956;20.130;2022-10-31T17:22:58;22.55;;;12.88;;
75012;SDS011;63567;49.956;20.130;2022-10-31T17:25:28;24.02;;;12.38;;
75012;SDS011;63567;49.956;20.130;2022-10-31T17:27:55;19.13;;;12.18;;
75012;SDS011;63567;49.956;20.130;2022-10-31T17:30:21;19.15;;;11.18;;
75012;SDS011;63567;49.956;20.130;2022-10-31T17:32:47;19.55;;;11.02;;
75012;SDS011;63567;49.956;20.130;2022-10-31T17:35:13;20.38;;;10.98;;
75012;SDS011;63567;49.956;20.130;2022-10-31T17:37:40;18.48;;;10.70;;
75012;SDS011;63567;49.956;20.130;2022-10-31T17:40:07;17.77;;;12.60;;